createdAt,value
2023-04-09T00:00:27.506Z,7.50
2023-04-09T00:01:27.534Z,7.53
2023-04-09T00:02:27.580Z,7.57
2023-04-09T00:03:27.603Z,7.55
2023-04-09T00:04:27.500Z,7.55
2023-04-09T00:05:27.467Z,7.53
2023-04-09T00:06:27.435Z,7.52
2023-04-09T00:07:27.440Z,7.50
2023-04-09T00:08:27.451Z,7.46
2023-04-09T00:09:27.403Z,7.46
2023-04-09T00:10:27.394Z,7.46
2023-04-09T00:11:27.399Z,7.46
2023-04-09T00:12:27.370Z,7.48
2023-04-09T00:13:38.684Z,7.46
2023-04-09T00:14:28.351Z,7.45
2023-04-09T00:15:31.189Z,7.45
2023-04-09T00:16:27.397Z,7.43
2023-04-09T00:17:27.343Z,7.42
2023-04-09T00:18:27.310Z,7.42
2023-04-09T00:19:27.304Z,7.39
2023-04-09T00:20:27.310Z,7.40
2023-04-09T00:21:27.287Z,7.42
2023-04-09T00:22:27.320Z,7.37
2023-04-09T00:23:27.277Z,7.35
2023-04-09T00:24:27.251Z,7.31
2023-04-09T00:25:27.237Z,7.31
2023-04-09T00:26:27.251Z,7.30
2023-04-09T00:27:27.280Z,7.27
2023-04-09T00:28:27.206Z,7.27
2023-04-09T00:29:27.191Z,7.25
2023-04-09T00:30:27.192Z,7.25
2023-04-09T00:31:27.189Z,7.23
2023-04-09T00:32:27.175Z,7.25
2023-04-09T00:33:27.221Z,7.25
2023-04-09T00:34:27.142Z,7.24
2023-04-09T00:35:27.271Z,7.23
2023-04-09T00:36:27.193Z,7.20
2023-04-09T00:37:27.101Z,7.21
2023-04-09T00:38:27.106Z,7.20
2023-04-09T00:39:27.099Z,7.20
2023-04-09T00:40:27.099Z,7.17
2023-04-09T00:41:27.078Z,7.15
2023-04-09T00:42:27.058Z,7.12
2023-04-09T00:43:27.096Z,7.10
2023-04-09T00:44:27.043Z,7.12
2023-04-09T00:45:27.073Z,7.10
2023-04-09T00:46:27.012Z,7.13
2023-04-09T00:47:27.027Z,7.17
2023-04-09T00:48:27.005Z,7.20
2023-04-09T00:49:26.980Z,7.17
2023-04-09T00:50:26.991Z,7.16
2023-04-09T00:51:27.003Z,7.16
2023-04-09T00:52:26.958Z,7.16
2023-04-09T00:53:27.124Z,7.13
2023-04-09T00:54:26.936Z,7.16
2023-04-09T00:55:26.909Z,7.16
2023-04-09T00:56:26.917Z,7.17
2023-04-09T00:57:26.882Z,7.16
2023-04-09T00:58:26.882Z,7.16
2023-04-09T00:59:26.919Z,7.17
2023-04-09T01:00:26.856Z,7.16
2023-04-09T01:01:26.933Z,7.15
2023-04-09T01:02:26.958Z,7.15
2023-04-09T01:03:26.930Z,7.16
2023-04-09T01:04:26.816Z,7.15
2023-04-09T01:05:26.800Z,7.15
2023-04-09T01:06:26.800Z,7.15
2023-04-09T01:07:26.778Z,7.15
2023-04-09T01:08:26.771Z,7.15
2023-04-09T01:09:26.755Z,7.16
2023-04-09T01:10:26.751Z,7.16
2023-04-09T01:11:26.820Z,7.15
2023-04-09T01:12:26.752Z,7.15
2023-04-09T01:13:26.713Z,7.15
2023-04-09T01:14:26.708Z,7.13
2023-04-09T01:15:26.690Z,7.13
2023-04-09T01:16:26.736Z,7.10
2023-04-09T01:17:26.710Z,7.07
2023-04-09T01:18:26.665Z,7.06
2023-04-09T01:19:26.649Z,7.06
2023-04-09T01:20:26.640Z,7.05
2023-04-09T01:21:26.631Z,7.09
2023-04-09T01:22:26.620Z,7.07
2023-04-09T01:23:26.609Z,7.09
2023-04-09T01:24:26.601Z,7.10
2023-04-09T01:25:26.597Z,7.06
2023-04-09T01:26:26.608Z,7.05
2023-04-09T01:27:26.555Z,7.02
2023-04-09T01:28:26.559Z,7.03
2023-04-09T01:29:26.541Z,7.02
2023-04-09T01:30:26.595Z,7.03
2023-04-09T01:31:26.540Z,7.03
2023-04-09T01:32:26.541Z,7.03
2023-04-09T01:33:26.518Z,7.03
2023-04-09T01:34:26.485Z,7.05
2023-04-09T01:35:26.503Z,7.07
2023-04-09T01:36:26.519Z,7.06
2023-04-09T01:37:26.476Z,7.06
2023-04-09T01:38:26.489Z,7.05
2023-04-09T01:39:26.442Z,6.99
2023-04-09T01:40:26.426Z,6.99
2023-04-09T01:41:26.431Z,6.97
2023-04-09T01:42:26.404Z,6.94
2023-04-09T01:43:26.411Z,6.95
2023-04-09T01:44:26.384Z,6.97
2023-04-09T01:45:26.389Z,6.95
2023-04-09T01:46:26.444Z,6.95
2023-04-09T01:47:26.386Z,6.91
2023-04-09T01:48:26.332Z,6.92
2023-04-09T01:49:26.359Z,6.91
2023-04-09T01:50:26.316Z,6.88
2023-04-09T01:51:26.322Z,6.85
2023-04-09T01:52:26.297Z,6.81
2023-04-09T01:53:26.295Z,6.79
2023-04-09T01:54:26.273Z,6.79
2023-04-09T01:55:26.268Z,6.76
2023-04-09T01:56:26.340Z,6.74
2023-04-09T01:57:26.268Z,6.73
2023-04-09T01:58:26.293Z,6.71
2023-04-09T01:59:26.247Z,6.70
2023-04-09T02:00:26.215Z,6.67
2023-04-09T02:01:26.296Z,6.66
2023-04-09T02:02:26.252Z,6.66
2023-04-09T02:03:26.267Z,6.62
2023-04-09T02:04:26.171Z,6.66
2023-04-09T02:05:26.160Z,6.64
2023-04-09T02:06:26.289Z,6.62
2023-04-09T02:07:26.417Z,6.59
2023-04-09T02:08:26.127Z,6.59
2023-04-09T02:09:26.140Z,6.58
2023-04-09T02:10:26.157Z,6.58
2023-04-09T02:11:26.107Z,6.59
2023-04-09T02:12:26.082Z,6.59
2023-04-09T02:13:26.085Z,6.56
2023-04-09T02:14:26.068Z,6.56
2023-04-09T02:15:26.056Z,6.67
2023-04-09T02:16:26.068Z,6.69
2023-04-09T02:17:26.123Z,6.71
2023-04-09T02:18:26.023Z,6.71
2023-04-09T02:19:26.054Z,6.71
2023-04-09T02:20:26.050Z,6.69
2023-04-09T02:21:26.035Z,6.66
2023-04-09T02:22:25.977Z,6.64
2023-04-09T02:23:25.967Z,6.64
2023-04-09T02:24:25.956Z,6.62
2023-04-09T02:25:25.950Z,6.62
2023-04-09T02:26:26.083Z,6.64
2023-04-09T02:27:25.914Z,6.61
2023-04-09T02:28:25.955Z,6.59
2023-04-09T02:29:25.910Z,6.59
2023-04-09T02:30:25.888Z,6.58
2023-04-09T02:31:25.961Z,6.55
2023-04-09T02:32:25.932Z,6.54
2023-04-09T02:33:25.859Z,6.52
2023-04-09T02:34:25.847Z,6.49
2023-04-09T02:35:25.835Z,6.46
2023-04-09T02:36:25.901Z,6.44
2023-04-09T02:37:25.818Z,6.46
2023-04-09T02:38:25.856Z,6.43
2023-04-09T02:39:25.789Z,6.40
2023-04-09T02:40:25.781Z,6.36
2023-04-09T02:41:25.781Z,6.41
2023-04-09T02:42:25.761Z,6.44
2023-04-09T02:43:25.752Z,6.44
2023-04-09T02:44:25.741Z,6.44
2023-04-09T02:45:25.721Z,6.44
2023-04-09T02:46:25.838Z,6.41
2023-04-09T02:47:25.735Z,6.38
2023-04-09T02:48:25.701Z,6.36
2023-04-09T02:49:25.689Z,6.33
2023-04-09T02:50:27.312Z,6.33
2023-04-09T02:51:25.667Z,6.30
2023-04-09T02:52:25.664Z,6.31
2023-04-09T02:53:25.661Z,6.30
2023-04-09T02:54:25.677Z,6.27
2023-04-09T02:55:25.742Z,6.27
2023-04-09T02:56:25.637Z,6.30
2023-04-09T02:57:25.662Z,6.30
2023-04-09T02:58:25.606Z,6.31
2023-04-09T02:59:25.685Z,6.31
2023-04-09T03:00:25.593Z,6.31
2023-04-09T03:01:25.606Z,6.31
2023-04-09T03:02:25.751Z,6.30
2023-04-09T03:03:25.768Z,6.28
2023-04-09T03:04:25.547Z,6.27
2023-04-09T03:05:25.826Z,6.22
2023-04-09T03:06:25.523Z,6.22
2023-04-09T03:07:25.549Z,6.22
2023-04-09T03:08:25.485Z,6.21
2023-04-09T03:09:25.469Z,6.21
2023-04-09T03:10:25.618Z,6.18
2023-04-09T03:11:25.493Z,6.17
2023-04-09T03:12:25.501Z,6.18
2023-04-09T03:13:25.434Z,6.17
2023-04-09T03:14:25.424Z,6.15
2023-04-09T03:15:25.430Z,6.11
2023-04-09T03:16:25.446Z,6.09
2023-04-09T03:17:25.388Z,6.09
2023-04-09T03:18:25.410Z,6.08
2023-04-09T03:19:25.370Z,6.11
2023-04-09T03:20:25.403Z,6.14
2023-04-09T03:21:25.337Z,6.14
2023-04-09T03:22:25.389Z,6.14
2023-04-09T03:23:25.360Z,6.15
2023-04-09T03:24:25.309Z,6.17
2023-04-09T03:25:25.308Z,6.18
2023-04-09T03:26:25.302Z,6.18
2023-04-09T03:27:25.285Z,6.22
2023-04-09T03:28:25.308Z,6.21
2023-04-09T03:29:25.255Z,6.21
2023-04-09T03:30:25.263Z,6.18
2023-04-09T03:31:25.280Z,6.15
2023-04-09T03:32:25.269Z,6.18
2023-04-09T03:33:25.250Z,6.21
2023-04-09T03:34:25.209Z,6.22
2023-04-09T03:35:25.278Z,6.22
2023-04-09T03:36:25.193Z,6.27
2023-04-09T03:37:25.173Z,6.28
2023-04-09T03:38:25.176Z,6.30
2023-04-09T03:39:25.157Z,6.33
2023-04-09T03:40:25.141Z,6.31
2023-04-09T03:41:25.139Z,6.30
2023-04-09T03:42:25.138Z,6.33
2023-04-09T03:43:25.114Z,6.34
2023-04-09T03:44:25.120Z,6.30
2023-04-09T03:45:25.089Z,6.30
2023-04-09T03:46:25.133Z,6.31
2023-04-09T03:47:25.085Z,6.33
2023-04-09T03:48:25.058Z,6.33
2023-04-09T03:49:25.056Z,6.28
2023-04-09T03:50:25.050Z,6.27
2023-04-09T03:51:25.028Z,6.28
2023-04-09T03:52:25.046Z,6.30
2023-04-09T03:53:25.002Z,6.30
2023-04-09T03:54:25.002Z,6.28
2023-04-09T03:55:25.030Z,6.30
2023-04-09T03:56:24.970Z,6.28
2023-04-09T03:57:24.968Z,6.30
2023-04-09T03:58:24.988Z,6.28
2023-04-09T03:59:24.947Z,6.28
2023-04-09T04:00:24.975Z,6.28
2023-04-09T04:01:24.920Z,6.30
2023-04-09T04:02:25.033Z,6.28
2023-04-09T04:03:25.018Z,6.28
2023-04-09T04:04:24.994Z,6.30
2023-04-09T04:05:24.880Z,6.30
2023-04-09T04:06:24.856Z,6.31
2023-04-09T04:07:24.880Z,6.28
2023-04-09T04:08:24.856Z,6.28
2023-04-09T04:09:24.833Z,6.28
2023-04-09T04:10:24.849Z,6.28
2023-04-09T04:11:24.831Z,6.30
2023-04-09T04:12:24.815Z,6.31
2023-04-09T04:13:24.892Z,6.33
2023-04-09T04:14:24.771Z,6.31
2023-04-09T04:15:24.781Z,6.33
2023-04-09T04:16:24.777Z,6.33
2023-04-09T04:17:24.794Z,6.36
2023-04-09T04:18:24.733Z,6.36
2023-04-09T04:19:24.718Z,6.37
2023-04-09T04:20:24.729Z,6.38
2023-04-09T04:21:24.692Z,6.38
2023-04-09T04:22:26.247Z,6.38
2023-04-09T04:23:24.673Z,6.37
2023-04-09T04:24:24.662Z,6.40
2023-04-09T04:25:24.656Z,6.41
2023-04-09T04:26:24.651Z,6.40
2023-04-09T04:27:24.629Z,6.38
2023-04-09T04:28:24.628Z,6.38
2023-04-09T04:29:24.614Z,6.37
2023-04-09T04:30:24.608Z,6.36
2023-04-09T04:31:24.640Z,6.34
2023-04-09T04:32:24.591Z,6.36
2023-04-09T04:33:24.568Z,6.34
2023-04-09T04:34:24.609Z,6.33
2023-04-09T04:35:24.683Z,6.31
2023-04-09T04:36:24.540Z,6.31
2023-04-09T04:37:24.526Z,6.33
2023-04-09T04:38:24.517Z,6.30
2023-04-09T04:39:24.500Z,6.30
2023-04-09T04:40:24.500Z,6.31
2023-04-09T04:41:24.515Z,6.31
2023-04-09T04:42:24.602Z,6.28
2023-04-09T04:43:24.481Z,6.28
2023-04-09T04:44:24.478Z,6.28
2023-04-09T04:45:24.442Z,6.27
2023-04-09T04:46:24.449Z,6.25
2023-04-09T04:47:24.438Z,6.25
2023-04-09T04:48:24.403Z,6.22
2023-04-09T04:49:24.397Z,6.25
2023-04-09T04:50:24.392Z,6.25
2023-04-09T04:51:24.379Z,6.27
2023-04-09T04:52:24.364Z,6.21
2023-04-09T04:53:24.361Z,6.21
2023-04-09T04:54:24.373Z,6.21
2023-04-09T04:55:24.358Z,6.19
2023-04-09T04:56:24.371Z,6.19
2023-04-09T04:57:24.321Z,6.19
2023-04-09T04:58:24.344Z,6.19
2023-04-09T04:59:24.357Z,6.21
2023-04-09T05:00:24.280Z,6.21
2023-04-09T05:01:24.308Z,6.21
2023-04-09T05:02:24.430Z,6.21
2023-04-09T05:03:27.003Z,6.21
2023-04-09T05:04:24.230Z,6.21
2023-04-09T05:05:24.288Z,6.19
2023-04-09T05:06:24.214Z,6.18
2023-04-09T05:07:24.233Z,6.21
2023-04-09T05:08:24.200Z,6.21
2023-04-09T05:09:24.172Z,6.19
2023-04-09T05:10:24.179Z,6.21
2023-04-09T05:11:24.174Z,6.22
2023-04-09T05:12:24.144Z,6.22
2023-04-09T05:13:24.194Z,6.22
2023-04-09T05:14:24.181Z,6.21
2023-04-09T05:15:24.159Z,6.19
2023-04-09T05:16:24.137Z,6.22
2023-04-09T05:17:24.152Z,6.25
2023-04-09T05:18:24.117Z,6.22
2023-04-09T05:19:24.087Z,6.22
2023-04-09T05:20:24.152Z,6.22
2023-04-09T05:21:24.063Z,6.21
2023-04-09T05:22:24.047Z,6.19
2023-04-09T05:23:24.030Z,6.21
2023-04-09T05:24:24.036Z,6.21
2023-04-09T05:25:24.035Z,6.22
2023-04-09T05:26:24.048Z,6.22
2023-04-09T05:27:23.984Z,6.25
2023-04-09T05:28:23.973Z,6.25
2023-04-09T05:29:23.956Z,6.25
2023-04-09T05:30:23.966Z,6.22
2023-04-09T05:31:23.993Z,6.25
2023-04-09T05:32:23.929Z,6.28
2023-04-09T05:33:23.976Z,6.30
2023-04-09T05:34:23.933Z,6.27
2023-04-09T05:35:23.928Z,6.28
2023-04-09T05:36:23.906Z,6.31
2023-04-09T05:37:23.878Z,6.34
2023-04-09T05:38:23.877Z,6.36
2023-04-09T05:39:23.847Z,6.37
2023-04-09T05:40:23.923Z,6.37
2023-04-09T05:41:23.895Z,6.40
2023-04-09T05:42:23.824Z,6.38
2023-04-09T05:43:23.810Z,6.41
2023-04-09T05:44:23.816Z,6.43
2023-04-09T05:45:23.799Z,6.44
2023-04-09T05:46:23.797Z,6.48
2023-04-09T05:47:23.861Z,6.46
2023-04-09T05:48:23.771Z,6.49
2023-04-09T05:49:23.747Z,6.52
2023-04-09T05:50:23.770Z,6.54
2023-04-09T05:51:23.740Z,6.55
2023-04-09T05:52:23.783Z,6.56
2023-04-09T05:53:23.725Z,6.56
2023-04-09T05:54:23.704Z,6.59
2023-04-09T05:55:23.711Z,6.61
2023-04-09T05:56:23.681Z,6.64
2023-04-09T05:57:23.740Z,6.64
2023-04-09T05:58:23.720Z,6.67
2023-04-09T05:59:23.768Z,6.69
2023-04-09T06:00:23.645Z,6.70
2023-04-09T06:01:23.745Z,6.73
2023-04-09T06:02:23.737Z,6.73
2023-04-09T06:03:23.809Z,6.76
2023-04-09T06:04:23.793Z,6.74
2023-04-09T06:05:23.689Z,6.77
2023-04-09T06:06:23.564Z,6.77
2023-04-09T06:07:23.659Z,6.79
2023-04-09T06:08:23.549Z,6.79
2023-04-09T06:09:23.583Z,6.80
2023-04-09T06:10:23.540Z,6.81
2023-04-09T06:11:23.515Z,6.85
2023-04-09T06:12:23.510Z,6.87
2023-04-09T06:13:23.490Z,6.88
2023-04-09T06:14:23.530Z,6.91
2023-04-09T06:15:23.500Z,6.92
2023-04-09T06:16:23.529Z,6.94
2023-04-09T06:17:23.479Z,6.94
2023-04-09T06:18:23.437Z,6.97
2023-04-09T06:19:23.456Z,6.97
2023-04-09T06:20:23.434Z,6.98
2023-04-09T06:21:23.400Z,6.98
2023-04-09T06:22:23.612Z,6.99
2023-04-09T06:23:23.403Z,7.02
2023-04-09T06:24:23.383Z,7.02
2023-04-09T06:25:23.413Z,7.06
2023-04-09T06:26:23.353Z,7.10
2023-04-09T06:27:23.336Z,7.15
2023-04-09T06:28:23.332Z,7.21
2023-04-09T06:29:24.437Z,7.24
2023-04-09T06:30:23.339Z,7.25
2023-04-09T06:31:23.323Z,7.28
2023-04-09T06:32:23.297Z,7.32
2023-04-09T06:33:23.305Z,7.34
2023-04-09T06:34:23.275Z,7.35
2023-04-09T06:35:23.284Z,7.39
2023-04-09T06:36:23.293Z,7.42
2023-04-09T06:37:23.228Z,7.45
2023-04-09T06:38:23.497Z,7.52
2023-04-09T06:39:23.222Z,7.61
2023-04-09T06:40:23.461Z,7.71
2023-04-09T06:41:23.206Z,7.77
2023-04-09T06:42:23.189Z,7.85
2023-04-09T06:43:23.164Z,7.85
2023-04-09T06:44:23.167Z,7.87
2023-04-09T06:45:23.164Z,7.97
2023-04-09T06:46:23.181Z,8.02
2023-04-09T06:47:23.130Z,8.08
2023-04-09T06:48:23.185Z,8.16
2023-04-09T06:49:23.105Z,8.26
2023-04-09T06:50:23.131Z,8.33
2023-04-09T06:51:23.119Z,8.40
2023-04-09T06:52:23.297Z,8.50
2023-04-09T06:53:23.115Z,8.59
2023-04-09T06:54:23.055Z,8.62
2023-04-09T06:55:23.047Z,8.61
2023-04-09T06:56:23.027Z,8.68
2023-04-09T06:57:23.008Z,8.73
2023-04-09T06:58:23.017Z,8.79
2023-04-09T06:59:22.994Z,8.86
2023-04-09T07:00:23.055Z,8.89
2023-04-09T07:01:22.985Z,8.94
2023-04-09T07:02:23.082Z,8.95
2023-04-09T07:03:23.065Z,8.99
2023-04-09T07:04:23.036Z,9.02
2023-04-09T07:05:23.022Z,9.05
2023-04-09T07:06:22.925Z,9.13
2023-04-09T07:07:25.377Z,9.24
2023-04-09T07:08:22.967Z,9.18
2023-04-09T07:09:22.919Z,9.15
2023-04-09T07:10:22.899Z,9.17
2023-04-09T07:11:22.861Z,9.15
2023-04-09T07:12:22.872Z,9.18
2023-04-09T07:13:22.835Z,9.23
2023-04-09T07:14:22.848Z,9.32
2023-04-09T07:15:22.872Z,9.42
2023-04-09T07:16:23.675Z,9.43
2023-04-09T07:17:22.915Z,9.42
2023-04-09T07:18:22.803Z,9.46
2023-04-09T07:19:22.782Z,9.50
2023-04-09T07:20:22.798Z,9.61
2023-04-09T07:21:22.753Z,9.65
2023-04-09T07:22:22.745Z,9.81
2023-04-09T07:23:22.962Z,10.02
2023-04-09T07:24:22.734Z,10.17
2023-04-09T07:25:22.732Z,10.23
2023-04-09T07:26:22.700Z,10.20
2023-04-09T07:27:22.684Z,10.12
2023-04-09T07:28:22.678Z,10.15
2023-04-09T07:29:22.691Z,10.18
2023-04-09T07:30:22.660Z,10.14
2023-04-09T07:31:22.754Z,10.09
2023-04-09T07:32:22.681Z,10.05
2023-04-09T07:33:22.614Z,10.17
2023-04-09T07:34:22.632Z,10.30
2023-04-09T07:35:22.668Z,10.44
2023-04-09T07:36:22.602Z,10.63
2023-04-09T07:37:22.580Z,10.64
2023-04-09T07:38:22.573Z,10.81
2023-04-09T07:39:22.550Z,10.92
2023-04-09T07:40:22.581Z,11.03
2023-04-09T07:41:22.542Z,11.14
2023-04-09T07:42:22.573Z,11.17
2023-04-09T07:43:22.654Z,11.19
2023-04-09T07:44:22.533Z,11.21
2023-04-09T07:45:22.491Z,11.25
2023-04-09T07:46:22.516Z,11.25
2023-04-09T07:47:22.570Z,11.25
2023-04-09T07:48:22.460Z,11.28
2023-04-09T07:49:22.440Z,11.36
2023-04-09T07:50:22.637Z,11.44
2023-04-09T07:51:22.439Z,11.51
2023-04-09T07:52:22.431Z,11.61
2023-04-09T07:53:22.400Z,11.69
2023-04-09T07:54:22.487Z,11.75
2023-04-09T07:55:22.438Z,11.79
2023-04-09T07:56:22.377Z,11.88
2023-04-09T07:57:22.355Z,12.05
2023-04-09T07:58:22.426Z,12.04
2023-04-09T07:59:22.379Z,12.12
2023-04-09T08:00:22.366Z,12.14
2023-04-09T08:01:22.366Z,12.21
2023-04-09T08:02:22.418Z,12.21
2023-04-09T08:03:22.535Z,12.09
2023-04-09T08:04:22.422Z,12.28
2023-04-09T08:05:22.329Z,12.50
2023-04-09T08:06:22.312Z,12.57
2023-04-09T08:07:22.414Z,12.64
2023-04-09T08:08:22.242Z,12.70
2023-04-09T08:09:22.240Z,12.72
2023-04-09T08:10:22.241Z,12.78
2023-04-09T08:11:22.226Z,12.82
2023-04-09T08:12:22.271Z,12.95
2023-04-09T08:13:22.195Z,13.05
2023-04-09T08:14:22.201Z,13.00
2023-04-09T08:15:22.201Z,13.05
2023-04-09T08:16:22.191Z,13.03
2023-04-09T08:17:22.373Z,13.04
2023-04-09T08:18:22.143Z,13.05
2023-04-09T08:19:22.126Z,13.07
2023-04-09T08:20:22.128Z,13.17
2023-04-09T08:21:22.129Z,13.32
2023-04-09T08:22:22.107Z,13.36
2023-04-09T08:23:22.109Z,13.38
2023-04-09T08:24:22.088Z,13.39
2023-04-09T08:25:22.084Z,13.45
2023-04-09T08:26:22.063Z,13.44
2023-04-09T08:27:22.110Z,13.49
2023-04-09T08:28:22.077Z,13.55
2023-04-09T08:29:22.024Z,13.55
2023-04-09T08:30:22.027Z,13.66
2023-04-09T08:31:22.033Z,13.77
2023-04-09T08:32:22.035Z,13.79
2023-04-09T08:33:21.993Z,13.84
2023-04-09T08:34:21.984Z,13.84
2023-04-09T08:35:21.952Z,13.85
2023-04-09T08:36:22.069Z,13.99
2023-04-09T08:37:21.961Z,14.12
2023-04-09T08:38:22.050Z,14.14
2023-04-09T08:39:21.920Z,14.03
2023-04-09T08:40:21.953Z,13.96
2023-04-09T08:41:21.908Z,14.04
2023-04-09T08:42:21.890Z,14.10
2023-04-09T08:43:22.196Z,14.12
2023-04-09T08:44:21.940Z,14.18
2023-04-09T08:45:21.874Z,14.21
2023-04-09T08:46:21.892Z,14.25
2023-04-09T08:47:21.888Z,14.29
2023-04-09T08:48:21.976Z,14.37
2023-04-09T08:49:21.799Z,14.33
2023-04-09T08:50:21.860Z,14.35
2023-04-09T08:51:21.827Z,14.45
2023-04-09T08:52:21.809Z,14.58
2023-04-09T08:53:21.799Z,14.72
2023-04-09T08:54:21.756Z,14.84
2023-04-09T08:55:21.760Z,14.98
2023-04-09T08:56:21.733Z,14.96
2023-04-09T08:57:21.714Z,14.89
2023-04-09T08:58:21.721Z,14.91
2023-04-09T08:59:21.713Z,14.81
2023-04-09T09:00:21.751Z,14.83
2023-04-09T09:01:21.739Z,14.83
2023-04-09T09:02:21.782Z,14.86
2023-04-09T09:03:21.810Z,14.86
2023-04-09T09:04:21.792Z,14.84
2023-04-09T09:05:21.654Z,14.88
2023-04-09T09:06:21.678Z,14.91
2023-04-09T09:07:21.634Z,14.80
2023-04-09T09:08:21.617Z,14.72
2023-04-09T09:09:21.650Z,14.73
2023-04-09T09:10:21.616Z,14.88
2023-04-09T09:11:21.571Z,14.75
2023-04-09T09:12:21.554Z,14.55
2023-04-09T09:13:21.539Z,14.68
2023-04-09T09:14:21.566Z,14.86
2023-04-09T09:15:21.553Z,14.98
2023-04-09T09:16:21.583Z,14.51
2023-04-09T09:17:21.563Z,14.54
2023-04-09T09:18:21.520Z,14.50
2023-04-09T09:19:21.498Z,14.70
2023-04-09T09:20:21.528Z,14.68
2023-04-09T09:21:21.602Z,14.46
2023-04-09T09:22:21.502Z,14.65
2023-04-09T09:23:21.445Z,14.55
2023-04-09T09:24:21.426Z,14.62
2023-04-09T09:25:21.445Z,14.55
2023-04-09T09:26:21.422Z,14.64
2023-04-09T09:27:21.397Z,14.92
2023-04-09T09:28:21.391Z,14.99
2023-04-09T09:29:21.453Z,15.07
2023-04-09T09:30:21.383Z,15.13
2023-04-09T09:31:21.412Z,15.13
2023-04-09T09:32:21.448Z,15.14
2023-04-09T09:33:21.338Z,15.10
2023-04-09T09:34:21.327Z,15.14
2023-04-09T09:35:21.329Z,15.16
2023-04-09T09:36:21.358Z,15.17
2023-04-09T09:37:21.316Z,15.34
2023-04-09T09:38:21.288Z,15.31
2023-04-09T09:39:21.271Z,15.41
2023-04-09T09:40:21.326Z,15.35
2023-04-09T09:41:21.306Z,15.19
2023-04-09T09:42:21.243Z,14.96
2023-04-09T09:43:21.226Z,14.96
2023-04-09T09:44:21.257Z,15.07
2023-04-09T09:45:21.252Z,15.27
2023-04-09T09:46:21.262Z,15.57
2023-04-09T09:47:21.186Z,15.74
2023-04-09T09:48:21.191Z,15.92
2023-04-09T09:49:21.236Z,15.93
2023-04-09T09:50:21.182Z,15.71
2023-04-09T09:51:21.148Z,15.50
2023-04-09T09:52:21.145Z,15.39
2023-04-09T09:53:21.135Z,15.34
2023-04-09T09:54:21.136Z,15.44
2023-04-09T09:55:21.184Z,15.74
2023-04-09T09:56:21.191Z,15.94
2023-04-09T09:57:21.104Z,15.78
2023-04-09T09:58:21.094Z,15.51
2023-04-09T09:59:21.092Z,15.19
2023-04-09T10:00:22.712Z,15.03
2023-04-09T10:01:21.100Z,14.92
2023-04-09T10:02:21.198Z,15.14
2023-04-09T10:03:21.066Z,15.39
2023-04-09T10:04:21.075Z,15.60
2023-04-09T10:05:21.025Z,15.60
2023-04-09T10:06:20.992Z,15.28
2023-04-09T10:07:21.012Z,15.09
2023-04-09T10:08:20.970Z,14.92
2023-04-09T10:09:21.027Z,14.64
2023-04-09T10:10:20.974Z,14.43
2023-04-09T10:11:20.933Z,14.69
2023-04-09T10:12:20.950Z,14.58
2023-04-09T10:13:20.923Z,14.57
2023-04-09T10:14:20.912Z,14.47
2023-04-09T10:15:20.911Z,14.69
2023-04-09T10:16:20.943Z,14.95
2023-04-09T10:17:20.916Z,14.99
2023-04-09T10:18:20.942Z,15.19
2023-04-09T10:19:20.866Z,15.10
2023-04-09T10:20:20.891Z,14.95
2023-04-09T10:21:20.892Z,14.92
2023-04-09T10:22:20.846Z,14.99
2023-04-09T10:23:20.808Z,15.03
2023-04-09T10:24:20.848Z,15.29
2023-04-09T10:25:20.796Z,15.51
2023-04-09T10:26:20.806Z,15.50
2023-04-09T10:27:20.812Z,15.41
2023-04-09T10:28:20.775Z,15.62
2023-04-09T10:29:20.769Z,15.78
2023-04-09T10:30:20.797Z,15.78
2023-04-09T10:31:20.764Z,15.72
2023-04-09T10:32:20.726Z,15.57
2023-04-09T10:33:20.700Z,15.60
2023-04-09T10:34:20.710Z,15.44
2023-04-09T10:35:20.728Z,15.50
2023-04-09T10:36:20.713Z,15.65
2023-04-09T10:37:20.667Z,15.50
2023-04-09T10:38:20.730Z,15.54
2023-04-09T10:39:20.681Z,15.67
2023-04-09T10:40:20.654Z,15.74
2023-04-09T10:41:20.618Z,15.54
2023-04-09T10:42:20.648Z,15.27
2023-04-09T10:43:20.685Z,15.38
2023-04-09T10:44:20.638Z,15.32
2023-04-09T10:45:22.371Z,15.50
2023-04-09T10:46:20.614Z,15.57
2023-04-09T10:47:20.556Z,15.49
2023-04-09T10:48:20.587Z,15.34
2023-04-09T10:49:20.549Z,15.32
2023-04-09T10:50:20.532Z,15.25
2023-04-09T10:51:20.516Z,15.19
2023-04-09T10:52:20.519Z,15.09
2023-04-09T10:53:20.503Z,14.98
2023-04-09T10:54:20.530Z,14.96
2023-04-09T10:55:20.474Z,14.81
2023-04-09T10:56:20.468Z,14.72
2023-04-09T10:57:20.488Z,14.75
2023-04-09T10:58:20.452Z,14.73
2023-04-09T10:59:20.441Z,14.73
2023-04-09T11:00:20.452Z,14.77
2023-04-09T11:01:20.434Z,14.77
2023-04-09T11:02:20.562Z,14.78
2023-04-09T11:03:20.505Z,14.86
2023-04-09T11:04:20.423Z,14.83
2023-04-09T11:05:20.385Z,14.86
2023-04-09T11:06:20.372Z,14.83
2023-04-09T11:07:20.365Z,14.80
2023-04-09T11:08:20.339Z,14.81
2023-04-09T11:09:20.340Z,14.89
2023-04-09T11:10:20.388Z,14.81
2023-04-09T11:11:20.306Z,14.65
2023-04-09T11:12:20.286Z,14.57
2023-04-09T11:13:20.303Z,14.57
2023-04-09T11:14:20.292Z,14.50
2023-04-09T11:15:20.272Z,14.55
2023-04-09T11:16:22.899Z,14.62
2023-04-09T11:17:20.284Z,14.58
2023-04-09T11:18:20.246Z,14.51
2023-04-09T11:19:20.237Z,14.45
2023-04-09T11:20:20.204Z,14.57
2023-04-09T11:21:20.189Z,14.61
2023-04-09T11:22:20.180Z,14.57
2023-04-09T11:23:20.190Z,14.64
2023-04-09T11:24:20.180Z,14.65
2023-04-09T11:25:20.200Z,14.68
2023-04-09T11:26:20.165Z,14.68
2023-04-09T11:27:20.128Z,14.69
2023-04-09T11:28:20.132Z,14.68
2023-04-09T11:29:20.372Z,14.70
2023-04-09T11:30:20.093Z,14.99
2023-04-09T11:31:20.122Z,15.07
2023-04-09T11:32:20.095Z,15.32
2023-04-09T11:33:20.582Z,15.59
2023-04-09T11:34:20.075Z,15.68
2023-04-09T11:35:20.052Z,15.75
2023-04-09T11:36:20.065Z,15.69
2023-04-09T11:37:20.027Z,15.84
2023-04-09T11:38:20.040Z,15.89
2023-04-09T11:39:20.011Z,15.84
2023-04-09T11:40:20.030Z,15.65
2023-04-09T11:41:20.001Z,15.53
2023-04-09T11:42:19.960Z,15.83
2023-04-09T11:43:19.956Z,16.01
2023-04-09T11:44:19.950Z,16.07
2023-04-09T11:45:19.929Z,16.05
2023-04-09T11:46:19.972Z,15.89
2023-04-09T11:47:19.938Z,15.54
2023-04-09T11:48:19.953Z,15.32
2023-04-09T11:49:19.915Z,15.44
2023-04-09T11:50:19.886Z,15.69
2023-04-09T11:51:19.873Z,15.78
2023-04-09T11:52:19.858Z,15.68
2023-04-09T11:53:19.937Z,15.72
2023-04-09T11:54:19.890Z,15.76
2023-04-09T11:55:19.825Z,15.27
2023-04-09T11:56:19.813Z,15.32
2023-04-09T11:57:19.808Z,15.41
2023-04-09T11:58:19.831Z,15.20
2023-04-09T11:59:19.810Z,15.20
2023-04-09T12:00:19.801Z,15.34
2023-04-09T12:01:19.792Z,15.20
2023-04-09T12:02:19.903Z,15.32
2023-04-09T12:03:20.030Z,15.47
2023-04-09T12:04:19.913Z,15.78
2023-04-09T12:05:19.753Z,15.84
2023-04-09T12:06:19.726Z,15.64
2023-04-09T12:07:19.711Z,15.65
2023-04-09T12:08:19.700Z,15.75
2023-04-09T12:09:19.813Z,15.78
2023-04-09T12:10:19.719Z,15.67
2023-04-09T12:11:19.660Z,15.49
2023-04-09T12:12:19.661Z,15.35
2023-04-09T12:13:19.703Z,15.31
2023-04-09T12:14:19.628Z,15.29
2023-04-09T12:15:19.653Z,15.31
2023-04-09T12:16:19.669Z,15.31
2023-04-09T12:17:19.616Z,15.34
2023-04-09T12:18:19.617Z,15.65
2023-04-09T12:19:19.623Z,16.07
2023-04-09T12:20:19.573Z,16.57
2023-04-09T12:21:19.582Z,16.46
2023-04-09T12:22:19.542Z,16.11
2023-04-09T12:23:19.776Z,16.00
2023-04-09T12:24:19.527Z,15.87
2023-04-09T12:25:19.524Z,16.11
2023-04-09T12:26:19.555Z,16.11
2023-04-09T12:27:19.528Z,16.04
2023-04-09T12:28:20.056Z,16.07
2023-04-09T12:29:19.496Z,16.39
2023-04-09T12:30:19.497Z,16.27
2023-04-09T12:31:19.530Z,16.25
2023-04-09T12:32:19.524Z,16.15
2023-04-09T12:33:19.470Z,16.05
2023-04-09T12:34:19.414Z,15.83
2023-04-09T12:35:19.429Z,15.83
2023-04-09T12:36:19.402Z,15.92
2023-04-09T12:37:19.500Z,16.04
2023-04-09T12:38:19.423Z,16.00
2023-04-09T12:39:19.353Z,15.83
2023-04-09T12:40:19.408Z,15.80
2023-04-09T12:41:19.386Z,15.74
2023-04-09T12:42:19.334Z,15.69
2023-04-09T12:43:19.340Z,15.60
2023-04-09T12:44:19.313Z,15.36
2023-04-09T12:45:19.297Z,15.28
2023-04-09T12:46:19.312Z,15.20
2023-04-09T12:47:19.300Z,15.27
2023-04-09T12:48:19.280Z,15.23
2023-04-09T12:49:19.246Z,15.27
2023-04-09T12:50:19.246Z,15.21
2023-04-09T12:51:19.218Z,15.29
2023-04-09T12:52:19.221Z,15.31
2023-04-09T12:53:19.220Z,15.25
2023-04-09T12:54:19.207Z,15.23
2023-04-09T12:55:19.214Z,15.25
2023-04-09T12:56:19.179Z,15.23
2023-04-09T12:57:19.174Z,15.23
2023-04-09T12:58:19.170Z,15.25
2023-04-09T12:59:19.145Z,15.29
2023-04-09T13:00:19.191Z,15.21
2023-04-09T13:01:19.201Z,15.36
2023-04-09T13:02:19.280Z,15.53
2023-04-09T13:03:19.236Z,15.82
2023-04-09T13:04:19.209Z,15.78
2023-04-09T13:05:19.090Z,15.82
2023-04-09T13:06:19.129Z,16.20